sensor_id;sensor_type;location;lat;lon;timestamp;P1;durP1;ratioP1;P2;durP2;ratioP2
11604;SDS011;5858;43.076;25.626;2023-04-06T00:00:18;5.57;;;5.00;;
11604;SDS011;5858;43.076;25.626;2023-04-06T00:02:46;7.03;;;5.30;;
11604;SDS011;5858;43.076;25.626;2023-04-06T00:05:14;6.03;;;5.23;;
11604;SDS011;5858;43.076;25.626;2023-04-06T00:07:41;5.67;;;5.17;;
11604;SDS011;5858;43.076;25.626;2023-04-06T00:10:09;7.27;;;6.47;;
11604;SDS011;5858;43.076;25.626;2023-04-06T00:12:36;9.43;;;8.20;;
11604;SDS011;5858;43.076;25.626;2023-04-06T00:15:03;12.97;;;9.33;;
11604;SDS011;5858;43.076;25.626;2023-04-06T00:17:31;11.03;;;8.97;;
11604;SDS011;5858;43.076;25.626;2023-04-06T00:19:58;10.93;;;8.80;;
11604;SDS011;5858;43.076;25.626;2023-04-06T00:22:26;10.80;;;8.07;;
11604;SDS011;5858;43.076;25.626;2023-04-06T00:24:53;10.53;;;8.70;;
11604;SDS011;5858;43.076;25.626;2023-04-06T00:27:23;11.97;;;9.23;;
11604;SDS011;5858;43.076;25.626;2023-04-06T00:29:50;11.90;;;8.83;;
11604;SDS011;5858;43.076;25.626;2023-04-06T00:32:17;10.93;;;7.43;;
11604;SDS011;5858;43.076;25.626;2023-04-06T00:34:45;10.70;;;8.27;;
11604;SDS011;5858;43.076;25.626;2023-04-06T00:37:12;10.53;;;8.80;;
11604;SDS011;5858;43.076;25.626;2023-04-06T00:39:42;11.40;;;8.13;;
11604;SDS011;5858;43.076;25.626;2023-04-06T00:42:10;8.07;;;6.97;;
11604;SDS011;5858;43.076;25.626;2023-04-06T00:44:39;7.83;;;6.13;;
11604;SDS011;5858;43.076;25.626;2023-04-06T00:47:07;8.97;;;6.60;;
11604;SDS011;5858;43.076;25.626;2023-04-06T00:49:34;6.63;;;5.93;;
11604;SDS011;5858;43.076;25.626;2023-04-06T00:52:01;6.33;;;5.73;;
11604;SDS011;5858;43.076;25.626;2023-04-06T00:54:28;8.10;;;6.77;;
11604;SDS011;5858;43.076;25.626;2023-04-06T00:56:57;7.23;;;6.10;;
11604;SDS011;5858;43.076;25.626;2023-04-06T00:59:24;6.33;;;5.73;;
11604;SDS011;5858;43.076;25.626;2023-04-06T01:01:52;6.20;;;5.60;;
11604;SDS011;5858;43.076;25.626;2023-04-06T01:04:20;6.33;;;5.73;;
11604;SDS011;5858;43.076;25.626;2023-04-06T01:06:48;9.10;;;5.47;;
11604;SDS011;5858;43.076;25.626;2023-04-06T01:09:16;7.17;;;5.60;;
11604;SDS011;5858;43.076;25.626;2023-04-06T01:11:43;7.00;;;5.93;;
11604;SDS011;5858;43.076;25.626;2023-04-06T01:14:12;7.00;;;6.30;;
11604;SDS011;5858;43.076;25.626;2023-04-06T01:16:39;6.70;;;5.97;;
11604;SDS011;5858;43.076;25.626;2023-04-06T01:19:07;7.73;;;6.37;;
11604;SDS011;5858;43.076;25.626;2023-04-06T01:21:35;7.27;;;5.87;;
11604;SDS011;5858;43.076;25.626;2023-04-06T01:24:05;7.37;;;6.57;;
11604;SDS011;5858;43.076;25.626;2023-04-06T01:26:32;7.03;;;5.80;;
11604;SDS011;5858;43.076;25.626;2023-04-06T01:29:00;6.13;;;5.50;;
11604;SDS011;5858;43.076;25.626;2023-04-06T01:31:29;7.13;;;6.17;;
11604;SDS011;5858;43.076;25.626;2023-04-06T01:33:56;6.93;;;5.87;;
11604;SDS011;5858;43.076;25.626;2023-04-06T01:36:23;6.97;;;6.03;;
11604;SDS011;5858;43.076;25.626;2023-04-06T01:38:51;6.27;;;5.67;;
11604;SDS011;5858;43.076;25.626;2023-04-06T01:41:19;6.10;;;5.50;;
11604;SDS011;5858;43.076;25.626;2023-04-06T01:43:47;7.33;;;6.60;;
11604;SDS011;5858;43.076;25.626;2023-04-06T01:46:14;6.93;;;6.20;;
11604;SDS011;5858;43.076;25.626;2023-04-06T01:48:41;7.30;;;6.60;;
11604;SDS011;5858;43.076;25.626;2023-04-06T01:51:08;9.23;;;7.53;;
11604;SDS011;5858;43.076;25.626;2023-04-06T01:53:35;8.50;;;7.20;;
11604;SDS011;5858;43.076;25.626;2023-04-06T01:56:02;9.07;;;7.23;;
11604;SDS011;5858;43.076;25.626;2023-04-06T01:58:31;12.33;;;8.00;;
11604;SDS011;5858;43.076;25.626;2023-04-06T02:00:58;13.10;;;7.70;;
11604;SDS011;5858;43.076;25.626;2023-04-06T02:03:25;8.23;;;7.00;;
11604;SDS011;5858;43.076;25.626;2023-04-06T02:05:52;10.47;;;7.87;;
11604;SDS011;5858;43.076;25.626;2023-04-06T02:08:19;8.97;;;7.03;;
11604;SDS011;5858;43.076;25.626;2023-04-06T02:10:46;9.23;;;7.13;;
11604;SDS011;5858;43.076;25.626;2023-04-06T02:13:13;9.27;;;7.83;;
11604;SDS011;5858;43.076;25.626;2023-04-06T02:15:41;7.43;;;6.73;;
11604;SDS011;5858;43.076;25.626;2023-04-06T02:18:08;8.83;;;7.70;;
11604;SDS011;5858;43.076;25.626;2023-04-06T02:20:35;11.43;;;8.07;;
11604;SDS011;5858;43.076;25.626;2023-04-06T02:23:02;10.30;;;6.77;;
11604;SDS011;5858;43.076;25.626;2023-04-06T02:25:29;9.73;;;7.67;;
11604;SDS011;5858;43.076;25.626;2023-04-06T02:27:56;8.30;;;6.90;;
11604;SDS011;5858;43.076;25.626;2023-04-06T02:30:23;8.73;;;7.27;;
11604;SDS011;5858;43.076;25.626;2023-04-06T02:32:51;7.97;;;7.17;;
11604;SDS011;5858;43.076;25.626;2023-04-06T02:35:19;9.83;;;7.43;;
11604;SDS011;5858;43.076;25.626;2023-04-06T02:37:46;9.00;;;7.30;;
11604;SDS011;5858;43.076;25.626;2023-04-06T02:40:13;7.73;;;6.93;;
11604;SDS011;5858;43.076;25.626;2023-04-06T02:42:40;8.40;;;7.47;;
11604;SDS011;5858;43.076;25.626;2023-04-06T02:45:08;7.47;;;6.77;;
11604;SDS011;5858;43.076;25.626;2023-04-06T02:47:35;7.93;;;6.47;;
11604;SDS011;5858;43.076;25.626;2023-04-06T02:50:04;8.10;;;7.30;;
11604;SDS011;5858;43.076;25.626;2023-04-06T02:52:32;9.33;;;7.57;;
11604;SDS011;5858;43.076;25.626;2023-04-06T02:54:59;8.60;;;7.03;;
11604;SDS011;5858;43.076;25.626;2023-04-06T02:57:26;10.97;;;6.97;;
11604;SDS011;5858;43.076;25.626;2023-04-06T02:59:53;9.73;;;6.83;;
11604;SDS011;5858;43.076;25.626;2023-04-06T03:02:20;8.90;;;7.40;;
11604;SDS011;5858;43.076;25.626;2023-04-06T03:04:48;7.80;;;7.03;;
11604;SDS011;5858;43.076;25.626;2023-04-06T03:07:16;9.73;;;7.17;;
11604;SDS011;5858;43.076;25.626;2023-04-06T03:09:43;7.47;;;6.60;;
11604;SDS011;5858;43.076;25.626;2023-04-06T03:12:10;7.27;;;6.53;;
11604;SDS011;5858;43.076;25.626;2023-04-06T03:14:37;8.40;;;7.20;;
11604;SDS011;5858;43.076;25.626;2023-04-06T03:17:06;8.47;;;6.67;;
11604;SDS011;5858;43.076;25.626;2023-04-06T03:19:33;8.00;;;6.83;;
11604;SDS011;5858;43.076;25.626;2023-04-06T03:22:00;8.70;;;7.27;;
11604;SDS011;5858;43.076;25.626;2023-04-06T03:24:28;7.33;;;6.63;;
11604;SDS011;5858;43.076;25.626;2023-04-06T03:26:56;9.70;;;7.13;;
11604;SDS011;5858;43.076;25.626;2023-04-06T03:29:25;8.07;;;7.03;;
11604;SDS011;5858;43.076;25.626;2023-04-06T03:31:52;10.40;;;6.37;;
11604;SDS011;5858;43.076;25.626;2023-04-06T03:34:19;9.03;;;7.60;;
11604;SDS011;5858;43.076;25.626;2023-04-06T03:36:46;8.50;;;7.57;;
11604;SDS011;5858;43.076;25.626;2023-04-06T03:39:13;11.50;;;9.33;;
11604;SDS011;5858;43.076;25.626;2023-04-06T03:41:41;10.13;;;8.27;;
11604;SDS011;5858;43.076;25.626;2023-04-06T03:44:09;10.47;;;7.80;;
11604;SDS011;5858;43.076;25.626;2023-04-06T03:46:36;9.03;;;8.13;;
11604;SDS011;5858;43.076;25.626;2023-04-06T03:49:03;10.43;;;9.03;;
11604;SDS011;5858;43.076;25.626;2023-04-06T03:51:30;10.07;;;8.10;;
11604;SDS011;5858;43.076;25.626;2023-04-06T03:53:57;15.20;;;10.30;;
11604;SDS011;5858;43.076;25.626;2023-04-06T03:56:24;12.07;;;9.47;;
11604;SDS011;5858;43.076;25.626;2023-04-06T03:58:53;13.43;;;9.33;;
11604;SDS011;5858;43.076;25.626;2023-04-06T04:01:20;8.47;;;7.57;;
11604;SDS011;5858;43.076;25.626;2023-04-06T04:03:47;8.17;;;6.97;;
11604;SDS011;5858;43.076;25.626;2023-04-06T04:06:14;8.37;;;7.43;;
11604;SDS011;5858;43.076;25.626;2023-04-06T04:08:41;8.47;;;7.57;;
11604;SDS011;5858;43.076;25.626;2023-04-06T04:11:08;8.93;;;8.03;;
11604;SDS011;5858;43.076;25.626;2023-04-06T04:13:36;10.60;;;8.13;;
11604;SDS011;5858;43.076;25.626;2023-04-06T04:16:04;10.30;;;7.90;;
11604;SDS011;5858;43.076;25.626;2023-04-06T04:18:31;11.80;;;8.10;;
11604;SDS011;5858;43.076;25.626;2023-04-06T04:20:59;11.33;;;8.37;;
11604;SDS011;5858;43.076;25.626;2023-04-06T04:23:26;13.23;;;8.43;;
11604;SDS011;5858;43.076;25.626;2023-04-06T04:25:53;11.50;;;9.00;;
11604;SDS011;5858;43.076;25.626;2023-04-06T04:28:20;10.57;;;8.00;;
11604;SDS011;5858;43.076;25.626;2023-04-06T04:30:47;14.97;;;8.60;;
11604;SDS011;5858;43.076;25.626;2023-04-06T04:33:16;11.20;;;8.47;;
11604;SDS011;5858;43.076;25.626;2023-04-06T04:35:42;11.57;;;8.77;;
11604;SDS011;5858;43.076;25.626;2023-04-06T04:38:10;11.17;;;8.93;;
11604;SDS011;5858;43.076;25.626;2023-04-06T04:40:36;11.30;;;8.87;;
11604;SDS011;5858;43.076;25.626;2023-04-06T04:43:04;10.03;;;8.63;;
11604;SDS011;5858;43.076;25.626;2023-04-06T04:45:31;11.97;;;8.80;;
11604;SDS011;5858;43.076;25.626;2023-04-06T04:47:58;13.70;;;9.43;;
11604;SDS011;5858;43.076;25.626;2023-04-06T04:50:26;13.03;;;10.80;;
11604;SDS011;5858;43.076;25.626;2023-04-06T04:52:53;13.93;;;10.83;;
11604;SDS011;5858;43.076;25.626;2023-04-06T04:55:20;16.03;;;10.73;;
11604;SDS011;5858;43.076;25.626;2023-04-06T04:57:47;14.03;;;10.87;;
11604;SDS011;5858;43.076;25.626;2023-04-06T05:00:14;14.23;;;10.23;;
11604;SDS011;5858;43.076;25.626;2023-04-06T05:02:42;13.20;;;10.30;;
11604;SDS011;5858;43.076;25.626;2023-04-06T05:05:09;15.23;;;9.97;;
11604;SDS011;5858;43.076;25.626;2023-04-06T05:07:37;15.77;;;10.60;;
11604;SDS011;5858;43.076;25.626;2023-04-06T05:10:05;13.37;;;10.47;;
11604;SDS011;5858;43.076;25.626;2023-04-06T05:12:32;14.37;;;9.80;;
11604;SDS011;5858;43.076;25.626;2023-04-06T05:15:02;11.80;;;9.00;;
11604;SDS011;5858;43.076;25.626;2023-04-06T05:17:31;14.50;;;9.70;;
11604;SDS011;5858;43.076;25.626;2023-04-06T05:19:58;9.57;;;8.63;;
11604;SDS011;5858;43.076;25.626;2023-04-06T05:22:25;12.80;;;9.47;;
11604;SDS011;5858;43.076;25.626;2023-04-06T05:24:54;13.00;;;10.13;;
11604;SDS011;5858;43.076;25.626;2023-04-06T05:27:21;10.93;;;9.43;;
11604;SDS011;5858;43.076;25.626;2023-04-06T05:29:48;14.80;;;11.00;;
11604;SDS011;5858;43.076;25.626;2023-04-06T05:32:15;13.30;;;10.80;;
11604;SDS011;5858;43.076;25.626;2023-04-06T05:34:47;14.87;;;11.27;;
11604;SDS011;5858;43.076;25.626;2023-04-06T05:37:14;11.47;;;10.27;;
11604;SDS011;5858;43.076;25.626;2023-04-06T05:39:41;10.30;;;9.10;;
11604;SDS011;5858;43.076;25.626;2023-04-06T05:42:10;13.10;;;9.03;;
11604;SDS011;5858;43.076;25.626;2023-04-06T05:44:37;11.83;;;9.07;;
11604;SDS011;5858;43.076;25.626;2023-04-06T05:47:04;11.20;;;8.60;;
11604;SDS011;5858;43.076;25.626;2023-04-06T05:49:31;14.57;;;9.63;;
11604;SDS011;5858;43.076;25.626;2023-04-06T05:51:58;12.60;;;9.53;;
11604;SDS011;5858;43.076;25.626;2023-04-06T05:54:25;13.47;;;10.53;;
11604;SDS011;5858;43.076;25.626;2023-04-06T05:56:53;18.80;;;11.27;;
11604;SDS011;5858;43.076;25.626;2023-04-06T05:59:22;12.13;;;9.43;;
11604;SDS011;5858;43.076;25.626;2023-04-06T06:01:49;14.60;;;9.47;;
11604;SDS011;5858;43.076;25.626;2023-04-06T06:04:16;13.13;;;9.30;;
11604;SDS011;5858;43.076;25.626;2023-04-06T06:06:43;12.60;;;8.53;;
11604;SDS011;5858;43.076;25.626;2023-04-06T06:09:10;12.63;;;8.33;;
11604;SDS011;5858;43.076;25.626;2023-04-06T06:11:38;10.60;;;8.37;;
11604;SDS011;5858;43.076;25.626;2023-04-06T06:14:05;11.37;;;8.30;;
11604;SDS011;5858;43.076;25.626;2023-04-06T06:16:34;12.33;;;8.57;;
11604;SDS011;5858;43.076;25.626;2023-04-06T06:19:02;10.70;;;7.43;;
11604;SDS011;5858;43.076;25.626;2023-04-06T06:21:29;10.40;;;8.40;;
11604;SDS011;5858;43.076;25.626;2023-04-06T06:23:56;13.97;;;8.33;;
11604;SDS011;5858;43.076;25.626;2023-04-06T06:26:23;9.07;;;8.03;;
11604;SDS011;5858;43.076;25.626;2023-04-06T06:28:51;10.93;;;7.87;;
11604;SDS011;5858;43.076;25.626;2023-04-06T06:31:18;11.07;;;8.97;;
11604;SDS011;5858;43.076;25.626;2023-04-06T06:33:47;9.93;;;7.33;;
11604;SDS011;5858;43.076;25.626;2023-04-06T06:36:15;9.03;;;6.70;;
11604;SDS011;5858;43.076;25.626;2023-04-06T06:38:42;8.87;;;7.03;;
11604;SDS011;5858;43.076;25.626;2023-04-06T06:41:09;10.87;;;7.63;;
11604;SDS011;5858;43.076;25.626;2023-04-06T06:43:37;8.93;;;7.37;;
11604;SDS011;5858;43.076;25.626;2023-04-06T06:46:04;8.33;;;6.77;;
11604;SDS011;5858;43.076;25.626;2023-04-06T06:48:33;9.93;;;7.83;;
11604;SDS011;5858;43.076;25.626;2023-04-06T06:51:03;12.57;;;7.87;;
11604;SDS011;5858;43.076;25.626;2023-04-06T06:53:31;12.30;;;8.47;;
11604;SDS011;5858;43.076;25.626;2023-04-06T06:55:58;11.53;;;9.63;;
11604;SDS011;5858;43.076;25.626;2023-04-06T06:58:26;12.30;;;7.50;;
11604;SDS011;5858;43.076;25.626;2023-04-06T07:00:55;9.50;;;7.80;;
11604;SDS011;5858;43.076;25.626;2023-04-06T07:03:23;8.17;;;7.33;;
11604;SDS011;5858;43.076;25.626;2023-04-06T07:05:50;8.90;;;6.47;;
11604;SDS011;5858;43.076;25.626;2023-04-06T07:08:20;9.37;;;7.67;;
11604;SDS011;5858;43.076;25.626;2023-04-06T07:10:49;12.67;;;6.73;;
11604;SDS011;5858;43.076;25.626;2023-04-06T07:13:18;10.77;;;7.20;;
11604;SDS011;5858;43.076;25.626;2023-04-06T07:15:47;8.10;;;6.63;;
11604;SDS011;5858;43.076;25.626;2023-04-06T07:18:15;9.60;;;6.60;;
11604;SDS011;5858;43.076;25.626;2023-04-06T07:20:43;6.83;;;5.70;;
11604;SDS011;5858;43.076;25.626;2023-04-06T07:23:10;9.70;;;6.90;;
11604;SDS011;5858;43.076;25.626;2023-04-06T07:25:39;9.67;;;6.13;;
11604;SDS011;5858;43.076;25.626;2023-04-06T07:28:06;8.40;;;6.37;;
11604;SDS011;5858;43.076;25.626;2023-04-06T07:30:33;10.27;;;6.50;;
11604;SDS011;5858;43.076;25.626;2023-04-06T07:33:00;9.53;;;6.70;;
11604;SDS011;5858;43.076;25.626;2023-04-06T07:35:27;9.97;;;7.70;;
11604;SDS011;5858;43.076;25.626;2023-04-06T07:37:55;8.87;;;6.20;;
11604;SDS011;5858;43.076;25.626;2023-04-06T07:40:22;8.77;;;6.27;;
11604;SDS011;5858;43.076;25.626;2023-04-06T07:42:52;8.03;;;6.43;;
11604;SDS011;5858;43.076;25.626;2023-04-06T07:45:19;8.33;;;6.60;;
11604;SDS011;5858;43.076;25.626;2023-04-06T07:47:46;10.47;;;6.87;;
11604;SDS011;5858;43.076;25.626;2023-04-06T07:50:13;10.23;;;7.70;;
11604;SDS011;5858;43.076;25.626;2023-04-06T07:52:44;9.57;;;7.37;;
11604;SDS011;5858;43.076;25.626;2023-04-06T07:55:11;10.70;;;6.73;;
11604;SDS011;5858;43.076;25.626;2023-04-06T07:57:38;6.80;;;5.93;;
11604;SDS011;5858;43.076;25.626;2023-04-06T08:00:07;9.10;;;6.80;;
11604;SDS011;5858;43.076;25.626;2023-04-06T08:02:35;7.80;;;6.47;;
11604;SDS011;5858;43.076;25.626;2023-04-06T08:05:02;7.47;;;5.37;;
11604;SDS011;5858;43.076;25.626;2023-04-06T08:07:30;8.30;;;6.53;;
11604;SDS011;5858;43.076;25.626;2023-04-06T08:09:57;5.80;;;5.20;;
11604;SDS011;5858;43.076;25.626;2023-04-06T08:12:25;8.23;;;6.00;;
11604;SDS011;5858;43.076;25.626;2023-04-06T08:14:52;6.67;;;5.50;;
11604;SDS011;5858;43.076;25.626;2023-04-06T08:17:20;11.77;;;5.90;;
11604;SDS011;5858;43.076;25.626;2023-04-06T08:19:47;8.50;;;6.03;;
11604;SDS011;5858;43.076;25.626;2023-04-06T08:22:14;7.87;;;5.97;;
11604;SDS011;5858;43.076;25.626;2023-04-06T08:24:41;6.83;;;4.67;;
11604;SDS011;5858;43.076;25.626;2023-04-06T08:27:08;8.30;;;5.83;;
11604;SDS011;5858;43.076;25.626;2023-04-06T08:29:35;6.70;;;5.10;;
11604;SDS011;5858;43.076;25.626;2023-04-06T08:32:03;5.77;;;5.00;;
11604;SDS011;5858;43.076;25.626;2023-04-06T08:34:33;8.10;;;5.13;;
11604;SDS011;5858;43.076;25.626;2023-04-06T08:37:00;6.17;;;5.10;;
11604;SDS011;5858;43.076;25.626;2023-04-06T08:39:27;8.40;;;6.07;;
11604;SDS011;5858;43.076;25.626;2023-04-06T08:41:56;10.57;;;6.23;;
11604;SDS011;5858;43.076;25.626;2023-04-06T08:44:28;8.20;;;6.10;;
11604;SDS011;5858;43.076;25.626;2023-04-06T08:46:55;11.83;;;6.37;;
11604;SDS011;5858;43.076;25.626;2023-04-06T08:49:24;8.10;;;6.43;;
11604;SDS011;5858;43.076;25.626;2023-04-06T08:51:53;9.37;;;7.57;;
11604;SDS011;5858;43.076;25.626;2023-04-06T08:54:22;8.27;;;6.20;;
11604;SDS011;5858;43.076;25.626;2023-04-06T08:56:49;21.73;;;11.27;;
11604;SDS011;5858;43.076;25.626;2023-04-06T08:59:17;10.20;;;7.87;;
11604;SDS011;5858;43.076;25.626;2023-04-06T09:01:45;14.50;;;8.23;;
11604;SDS011;5858;43.076;25.626;2023-04-06T09:04:12;7.40;;;6.13;;
11604;SDS011;5858;43.076;25.626;2023-04-06T09:06:39;10.50;;;6.73;;
11604;SDS011;5858;43.076;25.626;2023-04-06T09:09:08;9.60;;;7.20;;
11604;SDS011;5858;43.076;25.626;2023-04-06T09:11:43;7.60;;;5.57;;
11604;SDS011;5858;43.076;25.626;2023-04-06T09:14:12;6.97;;;5.50;;
11604;SDS011;5858;43.076;25.626;2023-04-06T09:16:39;8.27;;;6.17;;
11604;SDS011;5858;43.076;25.626;2023-04-06T09:19:07;7.23;;;5.50;;
11604;SDS011;5858;43.076;25.626;2023-04-06T09:21:35;8.47;;;5.50;;
11604;SDS011;5858;43.076;25.626;2023-04-06T09:24:03;8.73;;;6.60;;
11604;SDS011;5858;43.076;25.626;2023-04-06T09:26:32;8.33;;;6.10;;
11604;SDS011;5858;43.076;25.626;2023-04-06T09:29:10;7.77;;;5.73;;
11604;SDS011;5858;43.076;25.626;2023-04-06T09:31:48;8.53;;;5.43;;
11604;SDS011;5858;43.076;25.626;2023-04-06T09:34:20;7.33;;;5.13;;
11604;SDS011;5858;43.076;25.626;2023-04-06T09:36:48;8.57;;;6.20;;
11604;SDS011;5858;43.076;25.626;2023-04-06T09:39:19;6.80;;;6.10;;
11604;SDS011;5858;43.076;25.626;2023-04-06T09:41:51;6.57;;;5.73;;
11604;SDS011;5858;43.076;25.626;2023-04-06T09:44:20;10.23;;;7.67;;
11604;SDS011;5858;43.076;25.626;2023-04-06T09:46:49;7.97;;;5.13;;
11604;SDS011;5858;43.076;25.626;2023-04-06T09:49:19;6.83;;;5.37;;
11604;SDS011;5858;43.076;25.626;2023-04-06T09:51:51;7.17;;;4.70;;
11604;SDS011;5858;43.076;25.626;2023-04-06T09:54:21;6.80;;;5.47;;
11604;SDS011;5858;43.076;25.626;2023-04-06T09:57:01;8.00;;;5.07;;
11604;SDS011;5858;43.076;25.626;2023-04-06T09:59:36;6.83;;;5.20;;
11604;SDS011;5858;43.076;25.626;2023-04-06T10:02:12;8.63;;;5.83;;
11604;SDS011;5858;43.076;25.626;2023-04-06T10:04:50;7.77;;;4.63;;
11604;SDS011;5858;43.076;25.626;2023-04-06T10:07:23;7.50;;;5.90;;
11604;SDS011;5858;43.076;25.626;2023-04-06T10:09:51;7.50;;;5.47;;
11604;SDS011;5858;43.076;25.626;2023-04-06T10:12:22;5.87;;;5.00;;
11604;SDS011;5858;43.076;25.626;2023-04-06T10:14:49;7.20;;;4.93;;
11604;SDS011;5858;43.076;25.626;2023-04-06T10:17:17;13.63;;;5.27;;
11604;SDS011;5858;43.076;25.626;2023-04-06T10:19:45;16.83;;;5.30;;
11604;SDS011;5858;43.076;25.626;2023-04-06T10:22:18;8.87;;;5.77;;
11604;SDS011;5858;43.076;25.626;2023-04-06T10:24:52;5.00;;;4.50;;
11604;SDS011;5858;43.076;25.626;2023-04-06T10:27:28;6.87;;;5.07;;
11604;SDS011;5858;43.076;25.626;2023-04-06T10:30:00;6.17;;;5.27;;
11604;SDS011;5858;43.076;25.626;2023-04-06T10:32:32;23.17;;;19.57;;
11604;SDS011;5858;43.076;25.626;2023-04-06T10:35:05;6.83;;;5.10;;
11604;SDS011;5858;43.076;25.626;2023-04-06T10:37:47;6.93;;;5.00;;
11604;SDS011;5858;43.076;25.626;2023-04-06T10:40:28;7.87;;;5.87;;
11604;SDS011;5858;43.076;25.626;2023-04-06T10:43:06;7.20;;;4.97;;
11604;SDS011;5858;43.076;25.626;2023-04-06T10:45:34;4.67;;;4.20;;
11604;SDS011;5858;43.076;25.626;2023-04-06T10:48:12;5.67;;;4.40;;
11604;SDS011;5858;43.076;25.626;2023-04-06T10:50:40;5.27;;;4.40;;
11604;SDS011;5858;43.076;25.626;2023-04-06T10:53:08;6.80;;;4.60;;
11604;SDS011;5858;43.076;25.626;2023-04-06T10:55:38;4.90;;;4.50;;
11604;SDS011;5858;43.076;25.626;2023-04-06T10:58:08;7.43;;;4.60;;
11604;SDS011;5858;43.076;25.626;2023-04-06T11:00:36;6.70;;;5.57;;
11604;SDS011;5858;43.076;25.626;2023-04-06T11:03:10;6.03;;;4.50;;
11604;SDS011;5858;43.076;25.626;2023-04-06T11:05:38;6.20;;;4.93;;
11604;SDS011;5858;43.076;25.626;2023-04-06T11:08:09;10.60;;;4.73;;
11604;SDS011;5858;43.076;25.626;2023-04-06T11:10:36;7.13;;;4.57;;
11604;SDS011;5858;43.076;25.626;2023-04-06T11:13:03;5.43;;;4.07;;
11604;SDS011;5858;43.076;25.626;2023-04-06T11:15:35;5.13;;;4.20;;
11604;SDS011;5858;43.076;25.626;2023-04-06T11:18:05;4.63;;;3.87;;
11604;SDS011;5858;43.076;25.626;2023-04-06T11:20:32;4.70;;;4.03;;
11604;SDS011;5858;43.076;25.626;2023-04-06T11:22:59;7.07;;;4.80;;
11604;SDS011;5858;43.076;25.626;2023-04-06T11:25:27;7.43;;;4.43;;
11604;SDS011;5858;43.076;25.626;2023-04-06T11:27:56;5.93;;;4.63;;
11604;SDS011;5858;43.076;25.626;2023-04-06T11:30:24;5.43;;;4.67;;
11604;SDS011;5858;43.076;25.626;2023-04-06T11:32:59;5.93;;;4.53;;
11604;SDS011;5858;43.076;25.626;2023-04-06T11:35:27;6.30;;;4.43;;
11604;SDS011;5858;43.076;25.626;2023-04-06T11:37:58;5.63;;;4.17;;
11604;SDS011;5858;43.076;25.626;2023-04-06T11:40:25;7.63;;;4.53;;
11604;SDS011;5858;43.076;25.626;2023-04-06T11:42:55;4.97;;;4.03;;
11604;SDS011;5858;43.076;25.626;2023-04-06T11:45:22;8.10;;;4.97;;
11604;SDS011;5858;43.076;25.626;2023-04-06T11:48:01;5.40;;;4.27;;
11604;SDS011;5858;43.076;25.626;2023-04-06T11:50:31;5.40;;;4.70;;
11604;SDS011;5858;43.076;25.626;2023-04-06T11:53:00;6.17;;;5.57;;
11604;SDS011;5858;43.076;25.626;2023-04-06T11:55:28;6.77;;;4.67;;
11604;SDS011;5858;43.076;25.626;2023-04-06T11:57:55;6.93;;;4.57;;
11604;SDS011;5858;43.076;25.626;2023-04-06T12:00:22;5.03;;;4.50;;
11604;SDS011;5858;43.076;25.626;2023-04-06T12:02:50;6.20;;;4.30;;
11604;SDS011;5858;43.076;25.626;2023-04-06T12:05:18;5.97;;;4.87;;
11604;SDS011;5858;43.076;25.626;2023-04-06T12:07:45;4.80;;;4.17;;
11604;SDS011;5858;43.076;25.626;2023-04-06T12:10:12;7.50;;;4.90;;
11604;SDS011;5858;43.076;25.626;2023-04-06T12:12:39;5.20;;;4.20;;
11604;SDS011;5858;43.076;25.626;2023-04-06T12:15:06;4.97;;;4.10;;
11604;SDS011;5858;43.076;25.626;2023-04-06T12:17:34;5.67;;;4.13;;
11604;SDS011;5858;43.076;25.626;2023-04-06T12:20:01;4.70;;;4.20;;
11604;SDS011;5858;43.076;25.626;2023-04-06T12:22:30;4.53;;;4.00;;
11604;SDS011;5858;43.076;25.626;2023-04-06T12:24:57;5.77;;;4.60;;
11604;SDS011;5858;43.076;25.626;2023-04-06T12:27:26;7.23;;;4.60;;
11604;SDS011;5858;43.076;25.626;2023-04-06T12:29:53;5.23;;;3.97;;
11604;SDS011;5858;43.076;25.626;2023-04-06T12:32:20;5.10;;;4.60;;
11604;SDS011;5858;43.076;25.626;2023-04-06T12:34:47;7.83;;;4.53;;
11604;SDS011;5858;43.076;25.626;2023-04-06T12:37:17;5.90;;;5.13;;
11604;SDS011;5858;43.076;25.626;2023-04-06T12:39:46;5.90;;;4.00;;
11604;SDS011;5858;43.076;25.626;2023-04-06T12:42:13;5.47;;;4.30;;
11604;SDS011;5858;43.076;25.626;2023-04-06T12:44:40;5.33;;;4.37;;
11604;SDS011;5858;43.076;25.626;2023-04-06T12:47:08;5.70;;;4.53;;
11604;SDS011;5858;43.076;25.626;2023-04-06T12:49:36;5.53;;;4.60;;
11604;SDS011;5858;43.076;25.626;2023-04-06T12:52:03;5.10;;;4.30;;
11604;SDS011;5858;43.076;25.626;2023-04-06T12:54:30;5.67;;;4.90;;
11604;SDS011;5858;43.076;25.626;2023-04-06T12:56:59;6.93;;;5.03;;
11604;SDS011;5858;43.076;25.626;2023-04-06T12:59:26;5.33;;;4.43;;
11604;SDS011;5858;43.076;25.626;2023-04-06T13:01:56;4.67;;;4.00;;
11604;SDS011;5858;43.076;25.626;2023-04-06T13:04:23;5.30;;;4.80;;
11604;SDS011;5858;43.076;25.626;2023-04-06T13:06:50;8.17;;;4.80;;
11604;SDS011;5858;43.076;25.626;2023-04-06T13:09:19;5.93;;;4.80;;
11604;SDS011;5858;43.076;25.626;2023-04-06T13:11:46;5.57;;;4.00;;
11604;SDS011;5858;43.076;25.626;2023-04-06T13:14:15;6.57;;;3.97;;
11604;SDS011;5858;43.076;25.626;2023-04-06T13:16:42;5.50;;;4.30;;
11604;SDS011;5858;43.076;25.626;2023-04-06T13:19:09;5.77;;;3.93;;
11604;SDS011;5858;43.076;25.626;2023-04-06T13:21:37;5.30;;;3.93;;
11604;SDS011;5858;43.076;25.626;2023-04-06T13:24:04;6.23;;;4.17;;
11604;SDS011;5858;43.076;25.626;2023-04-06T13:26:31;5.03;;;4.07;;
11604;SDS011;5858;43.076;25.626;2023-04-06T13:28:59;4.53;;;4.13;;
11604;SDS011;5858;43.076;25.626;2023-04-06T13:31:29;7.83;;;4.00;;
11604;SDS011;5858;43.076;25.626;2023-04-06T13:33:56;4.90;;;4.10;;
11604;SDS011;5858;43.076;25.626;2023-04-06T13:36:23;4.37;;;3.83;;
11604;SDS011;5858;43.076;25.626;2023-04-06T13:38:51;5.60;;;3.57;;
11604;SDS011;5858;43.076;25.626;2023-04-06T13:41:20;5.30;;;3.20;;
11604;SDS011;5858;43.076;25.626;2023-04-06T13:43:48;3.60;;;3.20;;
11604;SDS011;5858;43.076;25.626;2023-04-06T13:46:16;3.13;;;2.77;;
11604;SDS011;5858;43.076;25.626;2023-04-06T13:48:44;6.10;;;3.47;;
11604;SDS011;5858;43.076;25.626;2023-04-06T13:51:12;6.20;;;2.97;;
11604;SDS011;5858;43.076;25.626;2023-04-06T13:53:40;4.07;;;2.80;;
11604;SDS011;5858;43.076;25.626;2023-04-06T13:56:07;5.57;;;3.03;;
11604;SDS011;5858;43.076;25.626;2023-04-06T13:58:34;6.37;;;3.20;;
11604;SDS011;5858;43.076;25.626;2023-04-06T14:01:02;4.47;;;3.67;;
11604;SDS011;5858;43.076;25.626;2023-04-06T14:03:33;5.20;;;3.97;;
11604;SDS011;5858;43.076;25.626;2023-04-06T14:06:08;6.20;;;4.17;;
11604;SDS011;5858;43.076;25.626;2023-04-06T14:08:36;8.90;;;5.37;;
11604;SDS011;5858;43.076;25.626;2023-04-06T14:11:03;4.33;;;3.93;;
11604;SDS011;5858;43.076;25.626;2023-04-06T14:13:33;8.33;;;5.17;;
11604;SDS011;5858;43.076;25.626;2023-04-06T14:16:00;5.47;;;4.63;;
11604;SDS011;5858;43.076;25.626;2023-04-06T14:18:27;4.90;;;4.00;;
11604;SDS011;5858;43.076;25.626;2023-04-06T14:20:56;6.83;;;5.03;;
11604;SDS011;5858;43.076;25.626;2023-04-06T14:23:25;5.10;;;4.27;;
11604;SDS011;5858;43.076;25.626;2023-04-06T14:25:55;5.17;;;4.57;;
11604;SDS011;5858;43.076;25.626;2023-04-06T14:28:28;8.60;;;6.00;;
11604;SDS011;5858;43.076;25.626;2023-04-06T14:30:56;9.57;;;5.40;;
11604;SDS011;5858;43.076;25.626;2023-04-06T14:33:23;9.37;;;6.60;;
11604;SDS011;5858;43.076;25.626;2023-04-06T14:35:50;7.90;;;5.43;;
11604;SDS011;5858;43.076;25.626;2023-04-06T14:38:17;10.40;;;5.53;;
11604;SDS011;5858;43.076;25.626;2023-04-06T14:40:46;5.83;;;4.80;;
11604;SDS011;5858;43.076;25.626;2023-04-06T14:43:13;6.10;;;4.37;;
11604;SDS011;5858;43.076;25.626;2023-04-06T14:45:40;8.57;;;4.70;;
11604;SDS011;5858;43.076;25.626;2023-04-06T14:48:07;8.17;;;5.53;;